Aktualne dane pomiarowe

Uwaga, wersja testowa! Automatyczne pobieranie danych za pomocą narzędzi lub skryptów to umożliwiających jest zabronione.

Dane meteo z obszaru Polski uzyskane na podstawie depesz SYNOP pobieranych co godzinę z NWS. Najedź myszką na symbol przedstawiony w tabeli, aby uzyskać informacje co do jego znaczenia. Prosimy pamiętać, że to testowa wersja strony, która jeszcze nie jest ukończona. Stworzono również jest krótki FAQ dotyczący korzystania z tej podstrony Anomalie temperatury w chwili obecnej odniesione są do okresu referencyjnego 1951-2016. Okres ten będzie później zmieniony na 1981-2010. Kliknij ikonę aby pobrać plik CSV. Kliknij ikonę aby wygenerować mapę synoptyczną dla danego terminu.

Wybierz Datę:    

        

Katowice (12560)

Dane terminowe dla wybranej stacji. Kliknij datę, aby otrzymać dane z tego terminu dla wszystkich stacji.

TemperaturaZachmurzenieWiatrCiśnienieOpadyPogoda
 Data t td wb tx tn tg rh  Nt Nl Cl Cm Ch ws wd g1 g2 wx mslp ppp ch 24h 12h t ww ww w1 w2  
2019-06-01 23:00:00 13.8 12.9 13.1--- 9410.0wx-wx1wx--11021.2 987.7 0.4---------
2019-06-01 22:00:00 14.7 13.2 13.6--- 9115.0wx-wx1wx--11020.9 987.6 0.7---------
2019-06-01 21:00:00 15.9 14.1 14.6--- 8915.0wx-wx1wx--11020.6 987.4 0.6---------
2019-06-01 20:00:00 17.5 14.6 15.5--- 8320.0wxwxwxwx1wx--11020.3 987.3 0.4---------
2019-06-01 19:00:00 18.7 13.8 15.5--- 7320.0wx-wx0---01019.8 986.9 -0.2---------
2019-06-01 18:00:00 20.6 14.0 16.3 24.1 18.5- 6630.0wxwxwxwxwx0---01019.4 986.8 -0.7- 0.012------
2019-06-01 17:00:00 22.2 13.0 16.4--- 5630.0wxwxwxwxwx2wx--21019.4 986.9 -1.0---------
2019-06-01 16:00:00 22.6 12.8 16.5--- 5430.0wxwxwxwx1wx--11019.5 987.1 -1.4---------
2019-06-01 15:00:00 22.6 12.8 16.5--- 5430.0wxwxwxwx2wx--21019.9 987.5 -1.3---------
2019-06-01 14:00:00 22.7 12.3 16.3--- 5230.0wxwxwxwx2wx--21020.3 987.9 -1.1---------
2019-06-01 13:00:00 21.9 12.7 16.2--- 5630.0wxwxwxwx1wx--11021.0 988.5 -0.9---------
2019-06-01 12:00:00 23.0 11.7 16.1--- 4930.0wxwxwxwx1wx--11021.2 988.8 -0.7- 0.06------
2019-06-01 11:00:00 24.0 12.9 17.1--- 5030.0wxwxwxwx1wx--11021.3 989.0 -0.6---------
2019-06-01 10:00:00 22.6 11.9 16.1--- 5130.0wxwxwxwx2wx--21021.9 989.4 -0.3---------
2019-06-01 09:00:00 21.7 12.0 15.7--- 5430.0wxwxwx3wx--31022.1 989.5 -0.2---------
2019-06-01 08:00:00 21.1 13.5 16.2--- 6230.0wxwxwxwx2wx--21022.3 989.6 -0.3---------
2019-06-01 07:00:00 20.4 14.1 16.3--- 6715.0wxwxwxwx1wx---1022.5 989.7 0.0---------
2019-06-01 06:00:00 18.8 13.6 15.4 20.2 10.5 10 7215.0wx-wx2wx--21022.6 989.7 0.3- 0.012----- 11.6
2019-06-01 05:00:00 15.2 14.1 14.4--- 9310.0wx-wxwx1wx--11023.3 989.9 0.6---------
2019-06-01 04:00:00 11.6 11.0 11.1--- 9610.0wxwxwxwxwx1wx--11023.5 989.7 0.3---------
2019-06-01 03:00:00 10.9 10.1 10.3--- 9510.0wxwxwxwxwx1wx--11023.3 989.4 -0.3---------
2019-06-01 02:00:00 11.1 10.0 10.3--- 9310.0wx-wx0---01023.1 989.3 -0.6---------
2019-06-01 01:00:00 12.0 10.7 11.1--- 9215.0wx-wx1wx--11023.1 989.4 -0.6---------
2019-06-01 00:00:00 13.3 11.5 12.0--- 8920.0wxwxwxwx0---01023.3 989.7 -0.3- 0.06------
2019-05-31 23:00:00 12.9 11.1 11.6--- 8920.0wxwxwxwx0---01023.5 989.9 0.0---------
2019-05-31 22:00:00 13.6 10.9 11.8--- 8430.0wxwxwxwx1wx---1023.6 990.0 0.6---------
2019-05-31 21:00:00 12.8 10.2 11.1--- 8430.0wxwxwxwx1wx--11023.7 990.0 1.1---------
2019-05-31 20:00:00 13.0 9.6 10.8--- 8030.0wx-wx1wx--11023.5 989.9 1.0---------
2019-05-31 19:00:00 15.4 9.5 11.8--- 6830.0wxwxwxwx1wx--11022.7 989.4 0.2---------
2019-05-31 18:00:00 20.2 7.2 12.9 22.1 13.4- 4350.0wxwxwxwx1wx--11021.7 988.9 -0.5- 0.012------
2019-05-31 17:00:00 21.7 5.1 12.7--- 3430.0wxwxwxwx1wx--11021.5 988.9 -0.7---------
2019-05-31 16:00:00 21.7 4.7 12.6--- 3330.0wxwxwxwx1wx--11021.8 989.2 -1.0---------
2019-05-31 15:00:00 21.9 5.3 12.9--- 3430.0wxwxwxwx1wx--11022.0 989.4 -1.0---------
2019-05-31 14:00:00 21.5 5.0 12.6--- 3430.0wxwxwx2wx---1022.2 989.6 -1.2---------
2019-05-31 13:00:00 21.0 3.7 11.9--- 3230.0wxwxwxwx2wx--21022.9 990.2 -1.0---------
2019-05-31 12:00:00 20.5 4.9 12.1--- 3630.0wxwxwxwx2wx--21023.2 990.4 -0.9- 0.06------
2019-05-31 11:00:00 20.0 3.6 11.4--- 3430.0wxwxwxwx2wx--21023.6 990.8 -0.6---------
2019-05-31 10:00:00 19.2 7.3 12.5--- 4630.0wxwxwxwxwx1wx--11024.1 991.2 -0.3---------
2019-05-31 09:00:00 18.0 7.1 11.8--- 4920.0wx-wxwx2wx---1024.4 991.3 -0.1---------
2019-05-31 08:00:00 16.6 5.8 10.6--- 4920.0wxwxwxwxwx1wx--11024.7 991.4 0.0---------
2019-05-31 07:00:00 15.1 7.9 10.8--- 6230.0wxwxwxwxwx1wx--11024.9 991.5 0.3---------
2019-05-31 06:00:00 13.5 7.3 9.8 13.6 7.8 7 6620.0wxwxwxwxwx1wx--11025.0 991.4 0.4 0.4 0.212------
2019-05-31 05:00:00 10.4 8.5 9.1--- 8810.0wx-wx2wx--21025.4 991.4 0.5---------
2019-05-31 04:00:00 8.8 8.0 8.2--- 9510.0wxwxwxwx1wx--11025.4 991.2 0.2---------
2019-05-31 03:00:00 8.1 7.2 7.4--- 9410.0wx-wx1wx--11025.3 991.0 -0.5---------
2019-05-31 02:00:00 8.5 7.3 7.7--- 9210.0wx-wx1wx--11025.1 990.9 -0.9---wx---
2019-05-31 01:00:00 9.6 7.4 8.1--- 8610.0wxwxwxwx2wx--21025.1 991.0 -0.9---------
2019-05-31 00:00:00 9.3 8.1 8.4--- 9210.0wxwxwxwx1wx--11025.6 991.5 -0.1- 0.26wx-w1--
1.7 ms

 

Print Friendly, PDF & Email